Coral Harbour, Nunavut

5:31 AM EDT on August 02, 2015 (GMT -0400)
Coral Harbour | | Change Station
CLOSE
Current Station
Airport
Location: Coral Harbour,
Elevation: 210 ft
Nearby Weather Stations

Elev 210 ft 64.19 °N, 83.36 °W | Updated 31 minutes ago

Light Rain
Light Rain
45 °F
Feels Like 41 °F
N
6
Wind Variable Wind from NE

Today is forecast to be nearly the same temperature as yesterday.

Today
High -- | Low -- °F
--% Chance of Precip.
Yesterday
High -- | Low -- °F
Precip. -- in
4:42 AM 10:34 PM
Waning Gibbous, 95% visible
Pressure 29.62 in
Visibility 15.0 miles
Clouds Overcast 2000 ft
Windchill 41 °F
Dew Point 41 °F
Humidity 87%
Rainfall 0.00 in
Snow Depth Not available.
UV 0 out of 12
Pollen Not available.
Air Quality Not available.
Flu Activity Not available.
METAR CYZS 020900Z 05005KT 15SM -RA OVC020 07/05 A2960 RMK SC8 WND ESTD PRESRR SLP028

More Conditions Fewer Conditions

Pressure 29.62 in
Visibility 15.0 miles
Clouds Overcast 2000 ft
Windchill 41 °F
Dew Point 41 °F
Humidity 87%
Rainfall 0.00 in
Snow Depth Not available.
UV 0 out of 12
Pollen Not available.
Air Quality Not available.
Flu Activity Not available.
METAR CYZS 020900Z 05005KT 15SM -RA OVC020 07/05 A2960 RMK SC8 WND ESTD PRESRR SLP028

More Conditions Fewer Conditions

10-Day Weather Forecast

×

Almanac

Astronomy

Aug. 02, 2015 Rise Set
Actual Time
Civil Twilight
Nautical Twilight
Astronomical Twilight
Moon
Length of Visible Light
Length of Day
Tomorrow will be .
, % of the Moon is Illuminated

Today's Extremes

Country Highs Country Lows

Community

WunderPhotos

Upload Photos

1,843,213 photos uploaded!

WunderBlogs® & News

Nearby

Air Quality

  Air Quality AQ Index Pollutant
Not available.

Snow Depth

Station Depth Elevation

Earthquake Activity

City Distance Mag. Time & Date
Minimum magnitude displayed is 2.5.

Coastal Water Temperatures

Place Temperature

Stations

Nearby Weather Stations

Station Location Temp. Windchill Dew Point Humidity Wind Precip. Elev Updated Type